createdAt,value
2019-02-19T00:03:16.347Z,100.00
2019-02-19T00:08:20.389Z,100.00
2019-02-19T00:13:24.577Z,100.00
2019-02-19T00:18:28.660Z,100.00
2019-02-19T00:23:39.983Z,100.00
2019-02-19T00:28:44.098Z,100.00
2019-02-19T00:33:48.223Z,100.00
2019-02-19T00:38:52.297Z,100.00
2019-02-19T00:44:07.671Z,100.00
2019-02-19T00:49:13.570Z,100.00
2019-02-19T00:54:23.571Z,100.00
2019-02-19T00:59:27.641Z,100.00
2019-02-19T01:20:24.077Z,100.00
2019-02-19T01:25:28.121Z,100.00
2019-02-19T01:30:32.204Z,100.00
2019-02-19T01:35:36.323Z,100.00
2019-02-19T01:40:40.491Z,100.00
2019-02-19T01:45:44.592Z,100.00
2019-02-19T01:51:07.843Z,100.00
2019-02-19T01:56:12.251Z,100.00
2019-02-19T02:01:16.324Z,100.00
2019-02-19T02:06:20.493Z,100.00
2019-02-19T02:11:24.583Z,100.00
2019-02-19T02:16:28.725Z,100.00
2019-02-19T02:21:38.639Z,100.00
2019-02-19T02:26:42.785Z,100.00
2019-02-19T02:31:47.691Z,100.00
2019-02-19T02:36:52.179Z,100.00
2019-02-19T02:42:01.896Z,100.00
2019-02-19T02:47:06.320Z,100.00
2019-02-19T02:52:10.413Z,100.00
2019-02-19T02:57:14.466Z,100.00
2019-02-19T03:02:18.521Z,100.00
2019-02-19T03:07:23.071Z,100.00
2019-02-19T03:12:27.841Z,100.00
2019-02-19T03:17:32.376Z,100.00
2019-02-19T03:27:54.862Z,100.00
2019-02-19T03:32:59.028Z,100.00
2019-02-19T03:38:03.077Z,100.00
2019-02-19T03:43:07.139Z,100.00
2019-02-19T03:48:11.255Z,100.00
2019-02-19T03:53:15.425Z,100.00
2019-02-19T03:58:19.815Z,100.00
2019-02-19T04:03:24.141Z,100.00
2019-02-19T04:08:28.245Z,100.00
2019-02-19T04:13:32.317Z,100.00
2019-02-19T04:18:36.397Z,100.00
2019-02-19T04:23:40.504Z,100.00
2019-02-19T04:28:44.576Z,100.00
2019-02-19T04:33:48.998Z,100.00
2019-02-19T04:38:58.710Z,100.00
2019-02-19T04:44:02.794Z,100.00
2019-02-19T04:49:06.871Z,100.00
2019-02-19T04:54:17.418Z,100.00
2019-02-19T04:59:21.552Z,100.00
2019-02-19T05:04:25.649Z,100.00
2019-02-19T05:09:29.771Z,100.00
2019-02-19T05:14:33.793Z,100.00
2019-02-19T05:19:37.897Z,100.00
2019-02-19T05:24:42.124Z,100.00
2019-02-19T05:29:46.181Z,100.00
2019-02-19T05:34:50.224Z,100.00
2019-02-19T05:39:54.384Z,100.00
2019-02-19T05:44:58.466Z,100.00
2019-02-19T05:50:03.010Z,100.00
2019-02-19T05:55:07.193Z,100.00
2019-02-19T06:05:47.870Z,100.00
2019-02-19T06:10:51.961Z,100.00
2019-02-19T06:15:56.349Z,100.00
2019-02-19T06:21:06.411Z,100.00
2019-02-19T06:26:10.486Z,100.00
2019-02-19T06:31:20.348Z,100.00
2019-02-19T06:36:24.768Z,100.00
2019-02-19T06:41:29.092Z,100.00
2019-02-19T06:46:33.213Z,100.00
2019-02-19T06:51:41.047Z,100.00
2019-02-19T06:56:45.139Z,100.00
2019-02-19T07:01:49.496Z,99.93
2019-02-19T07:12:10.938Z,96.65
2019-02-19T07:17:15.979Z,93.32
2019-02-19T07:22:26.585Z,90.73
2019-02-19T07:27:30.644Z,89.16
2019-02-19T07:38:10.752Z,86.07
2019-02-19T07:43:14.851Z,84.87
2019-02-19T07:48:18.927Z,83.49
2019-02-19T07:53:22.961Z,82.94
2019-02-19T07:58:27.004Z,80.74
2019-02-19T08:03:31.218Z,80.76
2019-02-19T08:08:35.324Z,78.75
2019-02-19T08:13:39.358Z,77.76
2019-02-19T08:18:43.390Z,74.58
2019-02-19T08:23:47.429Z,73.61
2019-02-19T08:28:51.493Z,72.26
2019-02-19T08:33:55.520Z,71.50
2019-02-19T08:38:59.523Z,69.46
2019-02-19T08:44:03.645Z,68.05
2019-02-19T08:49:07.721Z,66.90
2019-02-19T08:54:11.746Z,66.47
2019-02-19T08:59:15.821Z,66.20
2019-02-19T09:04:19.938Z,64.95
2019-02-19T09:09:24.000Z,64.76
2019-02-19T09:14:47.036Z,65.15
2019-02-19T09:19:51.169Z,65.03
2019-02-19T09:24:57.702Z,63.68
2019-02-19T09:30:01.747Z,63.68
2019-02-19T09:41:00.964Z,64.36
2019-02-19T09:46:05.010Z,64.36
2019-02-19T09:51:09.110Z,64.06
2019-02-19T09:56:13.198Z,63.22
2019-02-19T10:01:17.258Z,62.67
2019-02-19T10:06:21.316Z,63.18
2019-02-19T10:11:27.073Z,64.00
2019-02-19T10:16:31.172Z,64.33
2019-02-19T10:26:55.719Z,64.52
2019-02-19T10:32:01.473Z,64.21
2019-02-19T10:37:07.304Z,64.59
2019-02-19T10:42:11.381Z,65.95
2019-02-19T10:47:15.452Z,65.78
2019-02-19T10:52:19.537Z,66.45
2019-02-19T10:57:23.574Z,67.68
2019-02-19T11:02:27.967Z,67.46
2019-02-19T11:07:32.089Z,67.20
2019-02-19T11:12:36.179Z,65.56
2019-02-19T11:17:40.578Z,65.39
2019-02-19T11:22:45.106Z,64.27
2019-02-19T11:27:49.342Z,64.40
2019-02-19T11:32:53.502Z,63.74
2019-02-19T11:37:57.575Z,64.12
2019-02-19T11:43:01.773Z,63.67
2019-02-19T11:48:06.519Z,63.91
2019-02-19T11:53:10.682Z,64.22
2019-02-19T11:58:15.174Z,65.82
2019-02-19T12:03:19.232Z,66.00
2019-02-19T12:08:23.247Z,67.29
2019-02-19T12:13:27.305Z,67.47
2019-02-19T12:18:31.711Z,66.76
2019-02-19T12:23:35.823Z,65.07
2019-02-19T12:28:47.692Z,65.38
2019-02-19T12:33:52.058Z,63.78
2019-02-19T12:38:56.144Z,63.53
2019-02-19T12:49:37.267Z,63.57
2019-02-19T12:55:00.363Z,63.73
2019-02-19T13:05:59.775Z,64.20
2019-02-19T13:16:40.222Z,64.22
2019-02-19T13:21:44.256Z,62.98
2019-02-19T13:26:48.774Z,62.17
2019-02-19T13:31:53.360Z,61.77
2019-02-19T13:36:57.949Z,62.44
2019-02-19T13:42:02.063Z,62.94
2019-02-19T13:47:06.254Z,62.17
2019-02-19T13:52:10.388Z,61.98
2019-02-19T13:57:15.629Z,62.43
2019-02-19T14:02:19.974Z,63.07
2019-02-19T14:07:24.162Z,62.81
2019-02-19T14:12:28.191Z,61.17
2019-02-19T14:17:32.529Z,61.19
2019-02-19T14:22:38.762Z,60.70
2019-02-19T14:27:43.115Z,60.99
2019-02-19T14:32:47.432Z,59.67
2019-02-19T14:37:51.490Z,58.47
2019-02-19T14:42:55.606Z,59.14
2019-02-19T14:47:59.921Z,58.93
2019-02-19T14:53:04.034Z,57.65
2019-02-19T14:58:08.119Z,58.07
2019-02-19T15:03:12.293Z,59.14
2019-02-19T15:08:16.555Z,59.51
2019-02-19T15:13:21.753Z,59.99
2019-02-19T15:18:25.848Z,59.22
2019-02-19T15:23:31.482Z,59.47
2019-02-19T15:28:35.610Z,59.68
2019-02-19T15:33:39.730Z,58.01
2019-02-19T15:38:43.923Z,57.64
2019-02-19T15:43:48.021Z,57.15
2019-02-19T15:48:52.194Z,57.61
2019-02-19T15:53:56.682Z,58.05
2019-02-19T15:59:01.926Z,58.39
2019-02-19T16:04:06.016Z,58.66
2019-02-19T16:09:10.116Z,58.88
2019-02-19T16:14:16.612Z,59.67
2019-02-19T16:19:20.130Z,59.67
2019-02-19T16:24:24.254Z,59.84
2019-02-19T16:29:28.389Z,60.61
2019-02-19T16:34:32.605Z,60.66
2019-02-19T16:39:36.669Z,61.37
2019-02-19T16:44:40.798Z,60.93
2019-02-19T16:49:44.971Z,60.64
2019-02-19T16:54:49.065Z,60.79
2019-02-19T16:59:53.181Z,60.23
2019-02-19T17:04:57.246Z,60.52
2019-02-19T17:10:01.461Z,60.52
2019-02-19T17:15:06.348Z,60.87
2019-02-19T17:20:26.482Z,60.29
2019-02-19T17:25:16.781Z,59.89
2019-02-19T17:30:22.283Z,60.26
2019-02-19T17:35:26.730Z,59.83
2019-02-19T17:40:31.062Z,59.41
2019-02-19T17:45:35.478Z,59.95
2019-02-19T17:50:39.708Z,59.92
2019-02-19T17:55:44.046Z,60.27
2019-02-19T18:00:48.504Z,60.51
2019-02-19T18:05:52.769Z,60.82
2019-02-19T18:10:57.275Z,61.16
2019-02-19T18:16:01.521Z,60.94
2019-02-19T18:21:05.752Z,61.08
2019-02-19T18:26:09.892Z,61.08
2019-02-19T18:31:14.242Z,61.00
2019-02-19T18:36:19.616Z,61.06
2019-02-19T18:41:24.370Z,61.04
2019-02-19T18:46:28.529Z,61.03
2019-02-19T18:51:33.048Z,61.33
2019-02-19T18:56:37.248Z,61.60
2019-02-19T19:01:41.424Z,62.16
2019-02-19T19:06:45.525Z,62.29
2019-02-19T19:11:49.728Z,61.95
2019-02-19T19:16:53.779Z,61.25
2019-02-19T19:21:57.865Z,62.10
2019-02-19T19:27:01.917Z,61.79
2019-02-19T19:32:06.021Z,62.15
2019-02-19T19:42:25.961Z,61.74
2019-02-19T19:47:30.209Z,61.88
2019-02-19T19:52:58.423Z,67.27
2019-02-19T20:09:34.839Z,94.83
2019-02-19T20:20:40.352Z,96.33
2019-02-19T20:37:10.611Z,96.80
2019-02-19T20:48:13.087Z,97.63
2019-02-19T20:58:38.756Z,100.00
2019-02-19T21:03:44.943Z,100.00
2019-02-19T21:14:18.407Z,100.00
2019-02-19T21:19:22.670Z,100.00
2019-02-19T21:30:01.311Z,98.22
2019-02-19T21:35:26.014Z,98.49
2019-02-19T21:40:31.826Z,98.48
2019-02-19T21:45:37.593Z,99.92
2019-02-19T21:50:43.386Z,99.36
2019-02-19T21:55:47.425Z,99.97
2019-02-19T22:00:53.265Z,100.00
2019-02-19T22:05:59.090Z,100.00
2019-02-19T22:11:04.824Z,100.00
2019-02-19T22:16:27.890Z,100.00
2019-02-19T22:21:31.975Z,100.00
2019-02-19T22:31:51.440Z,100.00
2019-02-19T22:36:55.469Z,100.00
2019-02-19T22:41:59.510Z,100.00
2019-02-19T22:47:03.603Z,100.00
2019-02-19T22:52:12.521Z,100.00
2019-02-19T22:57:19.447Z,100.00
2019-02-19T23:02:23.793Z,100.00
2019-02-19T23:07:28.203Z,100.00
2019-02-19T23:12:32.306Z,100.00
2019-02-19T23:17:36.437Z,100.00
2019-02-19T23:22:40.527Z,100.00
2019-02-19T23:27:45.012Z,100.00
2019-02-19T23:32:49.444Z,100.00
2019-02-19T23:38:14.194Z,100.00
2019-02-19T23:48:33.858Z,100.00
2019-02-19T23:53:56.966Z,100.00
2019-02-19T23:59:20.227Z,100.00
